sensor_id;sensor_type;location;lat;lon;timestamp;temperature;humidity
65989;HTU21D;53592;51.402;6.054;2023-02-10T00:00:04;5.28;77.05
65989;HTU21D;53592;51.402;6.054;2023-02-10T00:02:30;5.26;77.01
65989;HTU21D;53592;51.402;6.054;2023-02-10T00:04:56;5.26;76.89
65989;HTU21D;53592;51.402;6.054;2023-02-10T00:07:22;5.24;76.76
65989;HTU21D;53592;51.402;6.054;2023-02-10T00:09:48;5.19;76.83
65989;HTU21D;53592;51.402;6.054;2023-02-10T00:12:15;5.16;76.79
65989;HTU21D;53592;51.402;6.054;2023-02-10T00:14:40;5.11;76.76
65989;HTU21D;53592;51.402;6.054;2023-02-10T00:17:06;5.11;76.67
65989;HTU21D;53592;51.402;6.054;2023-02-10T00:19:31;5.11;76.53
65989;HTU21D;53592;51.402;6.054;2023-02-10T00:21:59;5.12;76.28
65989;HTU21D;53592;51.402;6.054;2023-02-10T00:24:26;5.09;76.09
65989;HTU21D;53592;51.402;6.054;2023-02-10T00:26:52;5.05;76.12
65989;HTU21D;53592;51.402;6.054;2023-02-10T00:29:18;5.02;76.28
65989;HTU21D;53592;51.402;6.054;2023-02-10T00:31:44;5.00;76.34
65989;HTU21D;53592;51.402;6.054;2023-02-10T00:34:15;4.97;76.45
65989;HTU21D;53592;51.402;6.054;2023-02-10T00:36:41;4.90;76.95
65989;HTU21D;53592;51.402;6.054;2023-02-10T00:39:12;4.86;77.44
65989;HTU21D;53592;51.402;6.054;2023-02-10T00:41:38;4.81;77.82
65989;HTU21D;53592;51.402;6.054;2023-02-10T00:44:04;4.77;78.14
65989;HTU21D;53592;51.402;6.054;2023-02-10T00:46:29;4.74;78.42
65989;HTU21D;53592;51.402;6.054;2023-02-10T00:48:55;4.73;78.56
65989;HTU21D;53592;51.402;6.054;2023-02-10T00:51:20;4.73;78.65
65989;HTU21D;53592;51.402;6.054;2023-02-10T00:53:46;4.72;78.75
65989;HTU21D;53592;51.402;6.054;2023-02-10T00:56:15;4.73;79.06
65989;HTU21D;53592;51.402;6.054;2023-02-10T00:58:41;4.72;79.38
65989;HTU21D;53592;51.402;6.054;2023-02-10T01:01:06;4.68;79.62
65989;HTU21D;53592;51.402;6.054;2023-02-10T01:03:33;4.68;79.54
65989;HTU21D;53592;51.402;6.054;2023-02-10T01:05:59;4.71;79.22
65989;HTU21D;53592;51.402;6.054;2023-02-10T01:08:24;4.72;78.78
65989;HTU21D;53592;51.402;6.054;2023-02-10T01:11:04;4.73;78.38
65989;HTU21D;53592;51.402;6.054;2023-02-10T01:13:32;4.66;78.47
65989;HTU21D;53592;51.402;6.054;2023-02-10T01:16:01;4.62;78.54
65989;HTU21D;53592;51.402;6.054;2023-02-10T01:18:28;4.54;78.63
65989;HTU21D;53592;51.402;6.054;2023-02-10T01:20:54;4.49;78.55
65989;HTU21D;53592;51.402;6.054;2023-02-10T01:23:19;4.47;78.36
65989;HTU21D;53592;51.402;6.054;2023-02-10T01:25:45;4.46;78.01
65989;HTU21D;53592;51.402;6.054;2023-02-10T01:28:11;4.43;77.76
65989;HTU21D;53592;51.402;6.054;2023-02-10T01:30:37;4.41;77.64
65989;HTU21D;53592;51.402;6.054;2023-02-10T01:33:03;4.36;77.54
65989;HTU21D;53592;51.402;6.054;2023-02-10T01:35:29;4.29;77.75
65989;HTU21D;53592;51.402;6.054;2023-02-10T01:37:54;4.29;77.82
65989;HTU21D;53592;51.402;6.054;2023-02-10T01:40:22;4.27;78.03
65989;HTU21D;53592;51.402;6.054;2023-02-10T01:42:47;4.24;78.11
65989;HTU21D;53592;51.402;6.054;2023-02-10T01:47:40;4.12;78.96
65989;HTU21D;53592;51.402;6.054;2023-02-10T01:50:07;4.09;79.20
65989;HTU21D;53592;51.402;6.054;2023-02-10T01:52:33;4.07;79.18
65989;HTU21D;53592;51.402;6.054;2023-02-10T01:55:05;4.00;79.53
65989;HTU21D;53592;51.402;6.054;2023-02-10T01:57:32;3.95;80.12
65989;HTU21D;53592;51.402;6.054;2023-02-10T02:00:01;3.88;80.52
65989;HTU21D;53592;51.402;6.054;2023-02-10T02:02:28;3.87;80.87
65989;HTU21D;53592;51.402;6.054;2023-02-10T02:04:59;3.80;80.99
65989;HTU21D;53592;51.402;6.054;2023-02-10T02:07:28;3.76;80.79
65989;HTU21D;53592;51.402;6.054;2023-02-10T02:09:57;3.72;80.73
65989;HTU21D;53592;51.402;6.054;2023-02-10T02:15:27;3.71;80.52
65989;HTU21D;53592;51.402;6.054;2023-02-10T02:18:38;3.72;80.34
65989;HTU21D;53592;51.402;6.054;2023-02-10T02:33:07;3.54;79.81
65989;HTU21D;53592;51.402;6.054;2023-02-10T02:35:45;3.50;80.41
65989;HTU21D;53592;51.402;6.054;2023-02-10T02:38:11;3.43;81.39
65989;HTU21D;53592;51.402;6.054;2023-02-10T02:40:37;3.41;82.07
65989;HTU21D;53592;51.402;6.054;2023-02-10T02:43:04;3.42;82.32
65989;HTU21D;53592;51.402;6.054;2023-02-10T02:53:35;3.28;82.84
65989;HTU21D;53592;51.402;6.054;2023-02-10T02:59:08;3.27;82.90
65989;HTU21D;53592;51.402;6.054;2023-02-10T03:04:05;3.21;83.03
65989;HTU21D;53592;51.402;6.054;2023-02-10T03:06:31;3.15;83.04
65989;HTU21D;53592;51.402;6.054;2023-02-10T03:08:57;3.14;82.99
65989;HTU21D;53592;51.402;6.054;2023-02-10T03:11:22;3.12;83.09
65989;HTU21D;53592;51.402;6.054;2023-02-10T03:13:48;3.06;83.16
65989;HTU21D;53592;51.402;6.054;2023-02-10T03:16:13;3.09;83.22
65989;HTU21D;53592;51.402;6.054;2023-02-10T03:18:39;3.03;83.20
65989;HTU21D;53592;51.402;6.054;2023-02-10T03:21:05;3.03;83.15
65989;HTU21D;53592;51.402;6.054;2023-02-10T03:23:30;3.02;82.94
65989;HTU21D;53592;51.402;6.054;2023-02-10T03:26:00;3.01;82.81
65989;HTU21D;53592;51.402;6.054;2023-02-10T03:28:26;3.02;82.56
65989;HTU21D;53592;51.402;6.054;2023-02-10T03:30:52;3.02;82.42
65989;HTU21D;53592;51.402;6.054;2023-02-10T03:33:19;3.02;82.37
65989;HTU21D;53592;51.402;6.054;2023-02-10T03:35:45;3.01;82.38
65989;HTU21D;53592;51.402;6.054;2023-02-10T03:38:12;3.00;82.29
65989;HTU21D;53592;51.402;6.054;2023-02-10T03:40:38;2.98;82.30
65989;HTU21D;53592;51.402;6.054;2023-02-10T03:43:03;2.95;82.39
65989;HTU21D;53592;51.402;6.054;2023-02-10T03:45:29;2.96;82.34
65989;HTU21D;53592;51.402;6.054;2023-02-10T03:47:54;2.97;82.18
65989;HTU21D;53592;51.402;6.054;2023-02-10T03:50:20;2.98;81.94
65989;HTU21D;53592;51.402;6.054;2023-02-10T03:52:46;2.99;81.71
65989;HTU21D;53592;51.402;6.054;2023-02-10T03:55:12;2.97;81.44
65989;HTU21D;53592;51.402;6.054;2023-02-10T03:57:43;2.93;81.30
65989;HTU21D;53592;51.402;6.054;2023-02-10T04:00:10;2.89;81.18
65989;HTU21D;53592;51.402;6.054;2023-02-10T04:02:37;2.87;81.23
65989;HTU21D;53592;51.402;6.054;2023-02-10T04:05:02;2.84;81.36
65989;HTU21D;53592;51.402;6.054;2023-02-10T04:07:28;2.81;81.66
65989;HTU21D;53592;51.402;6.054;2023-02-10T04:09:53;2.79;81.73
65989;HTU21D;53592;51.402;6.054;2023-02-10T04:12:19;2.79;81.73
65989;HTU21D;53592;51.402;6.054;2023-02-10T04:14:44;2.79;82.21
65989;HTU21D;53592;51.402;6.054;2023-02-10T04:17:10;2.82;82.41
65989;HTU21D;53592;51.402;6.054;2023-02-10T04:19:35;2.85;82.61
65989;HTU21D;53592;51.402;6.054;2023-02-10T04:22:01;2.88;82.63
65989;HTU21D;53592;51.402;6.054;2023-02-10T04:24:27;2.93;82.50
65989;HTU21D;53592;51.402;6.054;2023-02-10T04:26:53;2.94;82.33
65989;HTU21D;53592;51.402;6.054;2023-02-10T04:29:18;2.95;82.23
65989;HTU21D;53592;51.402;6.054;2023-02-10T04:31:44;2.96;82.17
65989;HTU21D;53592;51.402;6.054;2023-02-10T04:34:09;2.95;82.35
65989;HTU21D;53592;51.402;6.054;2023-02-10T04:36:35;2.91;82.74
65989;HTU21D;53592;51.402;6.054;2023-02-10T04:39:01;2.87;82.99
65989;HTU21D;53592;51.402;6.054;2023-02-10T04:41:26;2.81;83.10
65989;HTU21D;53592;51.402;6.054;2023-02-10T04:43:52;2.78;83.19
65989;HTU21D;53592;51.402;6.054;2023-02-10T04:46:17;2.74;83.40
65989;HTU21D;53592;51.402;6.054;2023-02-10T04:48:43;2.71;83.68
65989;HTU21D;53592;51.402;6.054;2023-02-10T04:51:10;2.69;83.54
65989;HTU21D;53592;51.402;6.054;2023-02-10T04:53:38;2.67;83.54
65989;HTU21D;53592;51.402;6.054;2023-02-10T04:56:05;2.65;83.65
65989;HTU21D;53592;51.402;6.054;2023-02-10T04:58:31;2.66;83.55
65989;HTU21D;53592;51.402;6.054;2023-02-10T05:00:57;2.65;83.39
65989;HTU21D;53592;51.402;6.054;2023-02-10T05:03:23;2.65;83.17
65989;HTU21D;53592;51.402;6.054;2023-02-10T05:05:49;2.62;83.03
65989;HTU21D;53592;51.402;6.054;2023-02-10T05:08:17;2.64;82.90
65989;HTU21D;53592;51.402;6.054;2023-02-10T05:10:47;2.56;83.23
65989;HTU21D;53592;51.402;6.054;2023-02-10T05:13:13;2.54;83.32
65989;HTU21D;53592;51.402;6.054;2023-02-10T05:15:38;2.52;83.30
65989;HTU21D;53592;51.402;6.054;2023-02-10T05:18:04;2.49;83.29
65989;HTU21D;53592;51.402;6.054;2023-02-10T05:20:30;2.43;83.29
65989;HTU21D;53592;51.402;6.054;2023-02-10T05:22:56;2.45;83.20
65989;HTU21D;53592;51.402;6.054;2023-02-10T05:25:21;2.50;82.88
65989;HTU21D;53592;51.402;6.054;2023-02-10T05:27:47;2.50;82.55
65989;HTU21D;53592;51.402;6.054;2023-02-10T05:30:12;2.51;82.44
65989;HTU21D;53592;51.402;6.054;2023-02-10T05:32:39;2.45;82.71
65989;HTU21D;53592;51.402;6.054;2023-02-10T05:35:05;2.45;82.70
65989;HTU21D;53592;51.402;6.054;2023-02-10T05:37:31;2.47;82.64
65989;HTU21D;53592;51.402;6.054;2023-02-10T05:39:56;2.49;82.52
65989;HTU21D;53592;51.402;6.054;2023-02-10T05:42:22;2.50;82.36
65989;HTU21D;53592;51.402;6.054;2023-02-10T05:44:47;2.51;82.36
65989;HTU21D;53592;51.402;6.054;2023-02-10T05:47:13;2.49;82.60
65989;HTU21D;53592;51.402;6.054;2023-02-10T05:49:38;2.43;82.85
65989;HTU21D;53592;51.402;6.054;2023-02-10T05:52:04;2.40;83.20
65989;HTU21D;53592;51.402;6.054;2023-02-10T05:54:29;2.38;83.49
65989;HTU21D;53592;51.402;6.054;2023-02-10T05:56:55;2.36;83.80
65989;HTU21D;53592;51.402;6.054;2023-02-10T05:59:21;2.34;84.07
65989;HTU21D;53592;51.402;6.054;2023-02-10T06:01:47;2.32;84.13
65989;HTU21D;53592;51.402;6.054;2023-02-10T06:04:12;2.32;84.30
65989;HTU21D;53592;51.402;6.054;2023-02-10T06:06:38;2.34;84.21
65989;HTU21D;53592;51.402;6.054;2023-02-10T06:09:04;2.40;83.90
65989;HTU21D;53592;51.402;6.054;2023-02-10T06:11:30;2.44;83.45
65989;HTU21D;53592;51.402;6.054;2023-02-10T06:13:55;2.47;82.90
65989;HTU21D;53592;51.402;6.054;2023-02-10T06:16:21;2.52;82.52
65989;HTU21D;53592;51.402;6.054;2023-02-10T06:18:47;2.55;82.14
65989;HTU21D;53592;51.402;6.054;2023-02-10T06:21:14;2.59;81.89
65989;HTU21D;53592;51.402;6.054;2023-02-10T06:23:40;2.60;81.60
65989;HTU21D;53592;51.402;6.054;2023-02-10T06:26:05;2.62;81.27
65989;HTU21D;53592;51.402;6.054;2023-02-10T06:28:31;2.59;81.17
65989;HTU21D;53592;51.402;6.054;2023-02-10T06:30:57;2.58;81.04
65989;HTU21D;53592;51.402;6.054;2023-02-10T06:33:22;2.53;80.94
65989;HTU21D;53592;51.402;6.054;2023-02-10T06:35:48;2.45;80.99
65989;HTU21D;53592;51.402;6.054;2023-02-10T06:38:15;2.39;81.27
65989;HTU21D;53592;51.402;6.054;2023-02-10T06:40:41;2.29;81.80
65989;HTU21D;53592;51.402;6.054;2023-02-10T06:43:06;2.25;82.18
65989;HTU21D;53592;51.402;6.054;2023-02-10T06:45:35;2.24;82.35
65989;HTU21D;53592;51.402;6.054;2023-02-10T06:48:04;2.25;82.23
65989;HTU21D;53592;51.402;6.054;2023-02-10T06:50:30;2.26;82.12
65989;HTU21D;53592;51.402;6.054;2023-02-10T06:52:55;2.22;81.92
65989;HTU21D;53592;51.402;6.054;2023-02-10T06:55:21;2.14;82.10
65989;HTU21D;53592;51.402;6.054;2023-02-10T06:57:46;2.09;82.42
65989;HTU21D;53592;51.402;6.054;2023-02-10T07:00:14;2.03;82.91
65989;HTU21D;53592;51.402;6.054;2023-02-10T07:02:40;1.98;83.33
65989;HTU21D;53592;51.402;6.054;2023-02-10T07:05:07;1.98;83.56
65989;HTU21D;53592;51.402;6.054;2023-02-10T07:07:34;2.01;83.68
65989;HTU21D;53592;51.402;6.054;2023-02-10T07:10:00;2.06;83.56
65989;HTU21D;53592;51.402;6.054;2023-02-10T07:12:25;2.11;83.37
65989;HTU21D;53592;51.402;6.054;2023-02-10T07:14:52;2.17;83.12
65989;HTU21D;53592;51.402;6.054;2023-02-10T07:17:18;2.15;83.13
65989;HTU21D;53592;51.402;6.054;2023-02-10T07:19:43;2.14;83.53
65989;HTU21D;53592;51.402;6.054;2023-02-10T07:22:09;2.02;83.86
65989;HTU21D;53592;51.402;6.054;2023-02-10T07:24:35;1.99;84.33
65989;HTU21D;53592;51.402;6.054;2023-02-10T07:27:01;1.97;84.88
65989;HTU21D;53592;51.402;6.054;2023-02-10T07:29:28;1.99;85.07
65989;HTU21D;53592;51.402;6.054;2023-02-10T07:31:54;2.05;85.27
65989;HTU21D;53592;51.402;6.054;2023-02-10T07:34:20;2.08;85.38
65989;HTU21D;53592;51.402;6.054;2023-02-10T07:36:50;2.13;85.43
65989;HTU21D;53592;51.402;6.054;2023-02-10T07:39:22;2.17;85.50
65989;HTU21D;53592;51.402;6.054;2023-02-10T07:41:48;2.21;85.61
65989;HTU21D;53592;51.402;6.054;2023-02-10T07:44:13;2.25;85.64
65989;HTU21D;53592;51.402;6.054;2023-02-10T07:46:39;2.28;85.74
65989;HTU21D;53592;51.402;6.054;2023-02-10T07:49:05;2.31;85.85
65989;HTU21D;53592;51.402;6.054;2023-02-10T07:51:30;2.35;85.88
65989;HTU21D;53592;51.402;6.054;2023-02-10T07:53:56;2.38;86.03
65989;HTU21D;53592;51.402;6.054;2023-02-10T07:56:21;2.41;86.09
65989;HTU21D;53592;51.402;6.054;2023-02-10T07:58:47;2.44;86.26
65989;HTU21D;53592;51.402;6.054;2023-02-10T08:01:12;2.47;86.32
65989;HTU21D;53592;51.402;6.054;2023-02-10T08:03:38;2.53;86.67
65989;HTU21D;53592;51.402;6.054;2023-02-10T08:06:04;2.51;87.06
65989;HTU21D;53592;51.402;6.054;2023-02-10T08:08:30;2.53;87.41
65989;HTU21D;53592;51.402;6.054;2023-02-10T08:10:56;2.55;87.65
65989;HTU21D;53592;51.402;6.054;2023-02-10T08:13:22;2.57;87.99
65989;HTU21D;53592;51.402;6.054;2023-02-10T08:15:49;2.61;88.14
65989;HTU21D;53592;51.402;6.054;2023-02-10T08:18:15;2.71;88.24
65989;HTU21D;53592;51.402;6.054;2023-02-10T08:20:41;2.75;88.30
65989;HTU21D;53592;51.402;6.054;2023-02-10T08:23:06;2.81;88.48
65989;HTU21D;53592;51.402;6.054;2023-02-10T08:25:32;2.93;88.35
65989;HTU21D;53592;51.402;6.054;2023-02-10T08:27:58;2.95;88.60
65989;HTU21D;53592;51.402;6.054;2023-02-10T08:30:24;3.03;88.73
65989;HTU21D;53592;51.402;6.054;2023-02-10T08:32:49;3.10;88.76
65989;HTU21D;53592;51.402;6.054;2023-02-10T08:35:15;3.15;88.63
65989;HTU21D;53592;51.402;6.054;2023-02-10T08:37:41;3.18;88.86
65989;HTU21D;53592;51.402;6.054;2023-02-10T08:40:07;3.25;88.83
65989;HTU21D;53592;51.402;6.054;2023-02-10T08:42:34;3.32;88.72
65989;HTU21D;53592;51.402;6.054;2023-02-10T08:45:00;3.39;88.65
65989;HTU21D;53592;51.402;6.054;2023-02-10T08:47:26;3.44;88.54
65989;HTU21D;53592;51.402;6.054;2023-02-10T08:49:52;3.52;88.54
65989;HTU21D;53592;51.402;6.054;2023-02-10T08:52:17;3.53;88.53
65989;HTU21D;53592;51.402;6.054;2023-02-10T08:54:43;3.60;88.49
65989;HTU21D;53592;51.402;6.054;2023-02-10T08:57:09;3.61;88.53
65989;HTU21D;53592;51.402;6.054;2023-02-10T08:59:35;3.65;88.40
65989;HTU21D;53592;51.402;6.054;2023-02-10T09:02:00;3.71;88.44
65989;HTU21D;53592;51.402;6.054;2023-02-10T09:04:26;3.74;88.30
65989;HTU21D;53592;51.402;6.054;2023-02-10T09:06:52;3.74;88.59
65989;HTU21D;53592;51.402;6.054;2023-02-10T09:09:20;3.82;88.60
65989;HTU21D;53592;51.402;6.054;2023-02-10T09:11:48;3.87;88.55
65989;HTU21D;53592;51.402;6.054;2023-02-10T09:14:14;3.90;88.60
65989;HTU21D;53592;51.402;6.054;2023-02-10T09:16:40;3.97;88.57
65989;HTU21D;53592;51.402;6.054;2023-02-10T09:19:05;3.95;88.44
65989;HTU21D;53592;51.402;6.054;2023-02-10T09:21:31;3.97;88.53
65989;HTU21D;53592;51.402;6.054;2023-02-10T09:23:58;4.05;88.29
65989;HTU21D;53592;51.402;6.054;2023-02-10T09:26:24;4.14;88.22
65989;HTU21D;53592;51.402;6.054;2023-02-10T09:28:49;4.12;88.29
65989;HTU21D;53592;51.402;6.054;2023-02-10T09:31:16;4.16;88.51
65989;HTU21D;53592;51.402;6.054;2023-02-10T09:33:43;4.24;88.40
65989;HTU21D;53592;51.402;6.054;2023-02-10T09:36:16;4.30;88.44
65989;HTU21D;53592;51.402;6.054;2023-02-10T09:38:41;4.39;88.28
65989;HTU21D;53592;51.402;6.054;2023-02-10T09:44:05;4.53;87.51
65989;HTU21D;53592;51.402;6.054;2023-02-10T09:46:59;4.56;87.44
65989;HTU21D;53592;51.402;6.054;2023-02-10T09:57:59;4.82;86.46
65989;HTU21D;53592;51.402;6.054;2023-02-10T10:00:35;4.88;86.29
65989;HTU21D;53592;51.402;6.054;2023-02-10T10:03:06;4.95;86.14
65989;HTU21D;53592;51.402;6.054;2023-02-10T10:05:45;5.03;86.06
65989;HTU21D;53592;51.402;6.054;2023-02-10T10:08:21;5.09;85.90
65989;HTU21D;53592;51.402;6.054;2023-02-10T10:10:49;5.22;85.90
65989;HTU21D;53592;51.402;6.054;2023-02-10T10:13:24;5.31;85.80
65989;HTU21D;53592;51.402;6.054;2023-02-10T10:16:17;5.40;85.57
65989;HTU21D;53592;51.402;6.054;2023-02-10T10:21:49;5.64;85.13
65989;HTU21D;53592;51.402;6.054;2023-02-10T10:27:28;5.96;84.50
65989;HTU21D;53592;51.402;6.054;2023-02-10T10:30:11;6.23;84.33
65989;HTU21D;53592;51.402;6.054;2023-02-10T10:32:41;6.50;83.61
65989;HTU21D;53592;51.402;6.054;2023-02-10T10:35:23;6.79;82.87
65989;HTU21D;53592;51.402;6.054;2023-02-10T10:37:50;7.13;81.58
65989;HTU21D;53592;51.402;6.054;2023-02-10T10:40:29;7.40;80.48
65989;HTU21D;53592;51.402;6.054;2023-02-10T10:42:59;7.58;79.27
65989;HTU21D;53592;51.402;6.054;2023-02-10T10:45:29;7.76;78.22
65989;HTU21D;53592;51.402;6.054;2023-02-10T10:48:05;8.00;77.64
65989;HTU21D;53592;51.402;6.054;2023-02-10T10:50:32;8.12;76.05
65989;HTU21D;53592;51.402;6.054;2023-02-10T10:53:05;8.15;75.89
65989;HTU21D;53592;51.402;6.054;2023-02-10T10:55:52;8.16;75.86
65989;HTU21D;53592;51.402;6.054;2023-02-10T10:58:42;8.12;74.89
65989;HTU21D;53592;51.402;6.054;2023-02-10T11:01:11;8.03;75.41
65989;HTU21D;53592;51.402;6.054;2023-02-10T11:03:37;8.03;75.62
65989;HTU21D;53592;51.402;6.054;2023-02-10T11:06:11;8.05;75.31
65989;HTU21D;53592;51.402;6.054;2023-02-10T11:09:00;8.07;75.25
65989;HTU21D;53592;51.402;6.054;2023-02-10T11:11:38;8.03;75.12
65989;HTU21D;53592;51.402;6.054;2023-02-10T11:14:18;7.97;75.36
65989;HTU21D;53592;51.402;6.054;2023-02-10T11:16:49;7.90;75.76
65989;HTU21D;53592;51.402;6.054;2023-02-10T11:19:25;7.90;75.70
65989;HTU21D;53592;51.402;6.054;2023-02-10T11:21:52;7.84;75.53
65989;HTU21D;53592;51.402;6.054;2023-02-10T11:26:55;7.88;75.66
65989;HTU21D;53592;51.402;6.054;2023-02-10T11:29:21;7.92;74.76
65989;HTU21D;53592;51.402;6.054;2023-02-10T11:31:53;7.89;75.02
65989;HTU21D;53592;51.402;6.054;2023-02-10T11:34:37;7.88;74.97
65989;HTU21D;53592;51.402;6.054;2023-02-10T11:39:47;7.88;75.11
65989;HTU21D;53592;51.402;6.054;2023-02-10T11:42:20;7.94;74.70
65989;HTU21D;53592;51.402;6.054;2023-02-10T11:47:37;8.00;74.12
65989;HTU21D;53592;51.402;6.054;2023-02-10T11:50:04;7.93;73.64
65989;HTU21D;53592;51.402;6.054;2023-02-10T11:52:41;7.97;73.12
65989;HTU21D;53592;51.402;6.054;2023-02-10T11:55:12;8.01;73.93
65989;HTU21D;53592;51.402;6.054;2023-02-10T12:00:42;8.13;72.16
65989;HTU21D;53592;51.402;6.054;2023-02-10T12:06:03;8.28;72.83
65989;HTU21D;53592;51.402;6.054;2023-02-10T12:08:42;8.32;72.41
65989;HTU21D;53592;51.402;6.054;2023-02-10T12:11:31;8.44;72.12
65989;HTU21D;53592;51.402;6.054;2023-02-10T12:20:06;8.68;71.72
65989;HTU21D;53592;51.402;6.054;2023-02-10T12:22:56;8.72;71.67
65989;HTU21D;53592;51.402;6.054;2023-02-10T12:36:37;8.95;70.69
65989;HTU21D;53592;51.402;6.054;2023-02-10T12:39:32;9.01;70.72
65989;HTU21D;53592;51.402;6.054;2023-02-10T12:42:26;9.01;71.00
65989;HTU21D;53592;51.402;6.054;2023-02-10T12:50:39;9.06;71.07
65989;HTU21D;53592;51.402;6.054;2023-02-10T12:53:24;9.10;69.74
65989;HTU21D;53592;51.402;6.054;2023-02-10T12:55:55;9.11;69.75
65989;HTU21D;53592;51.402;6.054;2023-02-10T12:58:40;9.14;70.16
65989;HTU21D;53592;51.402;6.054;2023-02-10T13:01:26;9.20;70.22
65989;HTU21D;53592;51.402;6.054;2023-02-10T13:04:08;9.24;70.13
65989;HTU21D;53592;51.402;6.054;2023-02-10T13:06:44;9.27;69.72
65989;HTU21D;53592;51.402;6.054;2023-02-10T13:09:23;9.24;69.73
65989;HTU21D;53592;51.402;6.054;2023-02-10T13:12:31;9.25;68.60
65989;HTU21D;53592;51.402;6.054;2023-02-10T13:15:05;9.22;68.84
65989;HTU21D;53592;51.402;6.054;2023-02-10T13:17:58;9.24;68.65
65989;HTU21D;53592;51.402;6.054;2023-02-10T13:20:27;9.22;68.69
65989;HTU21D;53592;51.402;6.054;2023-02-10T13:28:48;9.11;67.53
65989;HTU21D;53592;51.402;6.054;2023-02-10T13:31:38;9.18;67.68
65989;HTU21D;53592;51.402;6.054;2023-02-10T13:34:20;9.25;67.43
65989;HTU21D;53592;51.402;6.054;2023-02-10T13:39:37;9.41;67.45
65989;HTU21D;53592;51.402;6.054;2023-02-10T13:42:34;9.49;66.88
65989;HTU21D;53592;51.402;6.054;2023-02-10T13:45:05;9.56;66.72
65989;HTU21D;53592;51.402;6.054;2023-02-10T13:47:40;9.56;66.89
65989;HTU21D;53592;51.402;6.054;2023-02-10T14:00:48;9.34;65.38
65989;HTU21D;53592;51.402;6.054;2023-02-10T14:06:03;9.32;65.34
65989;HTU21D;53592;51.402;6.054;2023-02-10T14:08:44;9.31;64.87
65989;HTU21D;53592;51.402;6.054;2023-02-10T14:13:58;9.30;65.05
65989;HTU21D;53592;51.402;6.054;2023-02-10T14:16:37;9.24;64.85
65989;HTU21D;53592;51.402;6.054;2023-02-10T14:19:19;9.21;64.93
65989;HTU21D;53592;51.402;6.054;2023-02-10T14:21:46;9.19;64.93
65989;HTU21D;53592;51.402;6.054;2023-02-10T14:24:38;9.12;65.47
65989;HTU21D;53592;51.402;6.054;2023-02-10T14:27:03;9.11;65.89
65989;HTU21D;53592;51.402;6.054;2023-02-10T14:29:33;9.14;65.72
65989;HTU21D;53592;51.402;6.054;2023-02-10T14:32:03;9.08;66.04
65989;HTU21D;53592;51.402;6.054;2023-02-10T14:34:30;9.07;66.20
65989;HTU21D;53592;51.402;6.054;2023-02-10T14:39:26;9.06;66.37
65989;HTU21D;53592;51.402;6.054;2023-02-10T14:41:56;9.09;66.48
65989;HTU21D;53592;51.402;6.054;2023-02-10T14:44:36;9.08;66.64
65989;HTU21D;53592;51.402;6.054;2023-02-10T14:47:03;9.05;66.93
65989;HTU21D;53592;51.402;6.054;2023-02-10T14:49:29;9.08;67.07
65989;HTU21D;53592;51.402;6.054;2023-02-10T14:52:02;9.06;67.01
65989;HTU21D;53592;51.402;6.054;2023-02-10T14:54:28;9.07;67.11
65989;HTU21D;53592;51.402;6.054;2023-02-10T14:56:58;9.05;67.27
65989;HTU21D;53592;51.402;6.054;2023-02-10T14:59:26;9.06;67.04
65989;HTU21D;53592;51.402;6.054;2023-02-10T15:01:54;8.97;67.23
65989;HTU21D;53592;51.402;6.054;2023-02-10T15:04:22;8.93;67.55
65989;HTU21D;53592;51.402;6.054;2023-02-10T15:06:53;8.91;67.84
65989;HTU21D;53592;51.402;6.054;2023-02-10T15:09:29;8.91;67.97
65989;HTU21D;53592;51.402;6.054;2023-02-10T15:12:03;8.87;68.17
65989;HTU21D;53592;51.402;6.054;2023-02-10T15:15:04;8.81;68.39
65989;HTU21D;53592;51.402;6.054;2023-02-10T15:17:39;8.79;68.49
65989;HTU21D;53592;51.402;6.054;2023-02-10T15:22:48;8.68;68.86
65989;HTU21D;53592;51.402;6.054;2023-02-10T15:30:58;8.64;69.07
65989;HTU21D;53592;51.402;6.054;2023-02-10T15:33:40;8.60;69.21
65989;HTU21D;53592;51.402;6.054;2023-02-10T15:36:24;8.59;69.23
65989;HTU21D;53592;51.402;6.054;2023-02-10T15:39:01;8.56;69.36
65989;HTU21D;53592;51.402;6.054;2023-02-10T15:41:43;8.52;69.39
65989;HTU21D;53592;51.402;6.054;2023-02-10T15:47:40;8.47;69.38
65989;HTU21D;53592;51.402;6.054;2023-02-10T15:49:46;8.37;69.58
65989;HTU21D;53592;51.402;6.054;2023-02-10T15:52:33;8.34;69.65
65989;HTU21D;53592;51.402;6.054;2023-02-10T15:55:02;8.30;69.73
65989;HTU21D;53592;51.402;6.054;2023-02-10T15:57:28;8.28;69.81
65989;HTU21D;53592;51.402;6.054;2023-02-10T15:59:54;8.23;70.07
65989;HTU21D;53592;51.402;6.054;2023-02-10T16:02:21;8.23;70.16
65989;HTU21D;53592;51.402;6.054;2023-02-10T16:04:47;8.22;70.38
65989;HTU21D;53592;51.402;6.054;2023-02-10T16:07:21;8.18;70.64
65989;HTU21D;53592;51.402;6.054;2023-02-10T16:09:47;8.18;70.86
65989;HTU21D;53592;51.402;6.054;2023-02-10T16:12:13;8.12;71.16
65989;HTU21D;53592;51.402;6.054;2023-02-10T16:14:38;8.11;71.36
65989;HTU21D;53592;51.402;6.054;2023-02-10T16:17:05;8.08;71.54
65989;HTU21D;53592;51.402;6.054;2023-02-10T16:19:32;8.07;71.56
65989;HTU21D;53592;51.402;6.054;2023-02-10T16:21:57;8.05;71.63
65989;HTU21D;53592;51.402;6.054;2023-02-10T16:24:25;8.03;71.67
65989;HTU21D;53592;51.402;6.054;2023-02-10T16:26:53;7.97;71.78
65989;HTU21D;53592;51.402;6.054;2023-02-10T16:29:22;7.92;71.99
65989;HTU21D;53592;51.402;6.054;2023-02-10T16:31:48;7.89;72.21
65989;HTU21D;53592;51.402;6.054;2023-02-10T16:34:14;7.87;72.47
65989;HTU21D;53592;51.402;6.054;2023-02-10T16:36:40;7.84;72.69
65989;HTU21D;53592;51.402;6.054;2023-02-10T16:39:19;7.82;72.86
65989;HTU21D;53592;51.402;6.054;2023-02-10T16:41:48;7.81;73.10
65989;HTU21D;53592;51.402;6.054;2023-02-10T16:44:13;7.78;73.27
65989;HTU21D;53592;51.402;6.054;2023-02-10T16:46:39;7.77;73.43
65989;HTU21D;53592;51.402;6.054;2023-02-10T16:49:05;7.76;73.69
65989;HTU21D;53592;51.402;6.054;2023-02-10T16:51:31;7.75;73.81
65989;HTU21D;53592;51.402;6.054;2023-02-10T16:53:56;7.74;73.97
65989;HTU21D;53592;51.402;6.054;2023-02-10T16:56:23;7.72;74.11
65989;HTU21D;53592;51.402;6.054;2023-02-10T16:58:49;7.72;74.23
65989;HTU21D;53592;51.402;6.054;2023-02-10T17:01:15;7.67;74.41
65989;HTU21D;53592;51.402;6.054;2023-02-10T17:03:42;7.64;74.60
65989;HTU21D;53592;51.402;6.054;2023-02-10T17:06:15;7.60;74.80
65989;HTU21D;53592;51.402;6.054;2023-02-10T17:08:42;7.55;75.03
65989;HTU21D;53592;51.402;6.054;2023-02-10T17:11:07;7.54;75.17
65989;HTU21D;53592;51.402;6.054;2023-02-10T17:13:34;7.50;75.41
65989;HTU21D;53592;51.402;6.054;2023-02-10T17:15:59;7.44;75.67
65989;HTU21D;53592;51.402;6.054;2023-02-10T17:18:25;7.41;75.83
65989;HTU21D;53592;51.402;6.054;2023-02-10T17:20:51;7.38;76.07
65989;HTU21D;53592;51.402;6.054;2023-02-10T17:23:16;7.35;76.21
65989;HTU21D;53592;51.402;6.054;2023-02-10T17:25:42;7.31;76.45
65989;HTU21D;53592;51.402;6.054;2023-02-10T17:28:08;7.29;76.65
65989;HTU21D;53592;51.402;6.054;2023-02-10T17:30:34;7.28;76.73
65989;HTU21D;53592;51.402;6.054;2023-02-10T17:33:02;7.28;76.89
65989;HTU21D;53592;51.402;6.054;2023-02-10T17:35:27;7.28;77.07
65989;HTU21D;53592;51.402;6.054;2023-02-10T17:37:56;7.25;77.31
65989;HTU21D;53592;51.402;6.054;2023-02-10T17:40:44;7.20;77.56
65989;HTU21D;53592;51.402;6.054;2023-02-10T17:43:09;7.18;78.01
65989;HTU21D;53592;51.402;6.054;2023-02-10T17:45:37;7.15;78.11